sensor_id;sensor_type;location;lat;lon;timestamp;pressure;altitude;pressure_sealevel;temperature;humidity
68226;BME280;55045;49.410;11.030;2023-04-15T00:01:57;97078.78;;;5.74;100.00
68226;BME280;55045;49.410;11.030;2023-04-15T00:05:01;97059.84;;;5.75;100.00
68226;BME280;55045;49.410;11.030;2023-04-15T00:08:06;97063.94;;;5.79;100.00
68226;BME280;55045;49.410;11.030;2023-04-15T00:11:10;97065.13;;;5.72;100.00
68226;BME280;55045;49.410;11.030;2023-04-15T00:14:13;97063.34;;;5.74;100.00
68226;BME280;55045;49.410;11.030;2023-04-15T00:17:16;97074.88;;;5.65;100.00
68226;BME280;55045;49.410;11.030;2023-04-15T00:20:20;97074.31;;;5.59;100.00
68226;BME280;55045;49.410;11.030;2023-04-15T00:23:25;97070.28;;;5.53;100.00
68226;BME280;55045;49.410;11.030;2023-04-15T00:26:28;97076.53;;;5.47;100.00
68226;BME280;55045;49.410;11.030;2023-04-15T00:29:32;97067.56;;;5.56;100.00
68226;BME280;55045;49.410;11.030;2023-04-15T00:32:35;97057.34;;;5.55;100.00
68226;BME280;55045;49.410;11.030;2023-04-15T00:35:39;97060.00;;;5.53;100.00
68226;BME280;55045;49.410;11.030;2023-04-15T00:38:44;97049.56;;;5.56;100.00
68226;BME280;55045;49.410;11.030;2023-04-15T00:41:47;97049.91;;;5.48;100.00
68226;BME280;55045;49.410;11.030;2023-04-15T00:44:51;97045.41;;;5.54;100.00
68226;BME280;55045;49.410;11.030;2023-04-15T00:47:56;97049.00;;;5.49;100.00
68226;BME280;55045;49.410;11.030;2023-04-15T00:51:00;97051.31;;;5.56;100.00
68226;BME280;55045;49.410;11.030;2023-04-15T00:54:05;97048.72;;;5.56;100.00
68226;BME280;55045;49.410;11.030;2023-04-15T00:57:08;97047.06;;;5.55;100.00
68226;BME280;55045;49.410;11.030;2023-04-15T01:00:12;97044.19;;;5.61;100.00
68226;BME280;55045;49.410;11.030;2023-04-15T01:03:15;97039.63;;;5.67;100.00
68226;BME280;55045;49.410;11.030;2023-04-15T01:06:19;97026.16;;;5.62;100.00
68226;BME280;55045;49.410;11.030;2023-04-15T01:09:24;97018.47;;;5.61;100.00
68226;BME280;55045;49.410;11.030;2023-04-15T01:12:28;97030.31;;;5.65;100.00
68226;BME280;55045;49.410;11.030;2023-04-15T01:15:31;97024.41;;;5.63;100.00
68226;BME280;55045;49.410;11.030;2023-04-15T01:18:34;97027.03;;;5.61;100.00
68226;BME280;55045;49.410;11.030;2023-04-15T01:21:41;97021.69;;;5.66;100.00
68226;BME280;55045;49.410;11.030;2023-04-15T01:24:52;97027.41;;;5.72;100.00
68226;BME280;55045;49.410;11.030;2023-04-15T01:27:58;97027.09;;;5.60;100.00
68226;BME280;55045;49.410;11.030;2023-04-15T01:31:08;97025.25;;;5.63;100.00
68226;BME280;55045;49.410;11.030;2023-04-15T01:34:12;97019.72;;;5.71;100.00
68226;BME280;55045;49.410;11.030;2023-04-15T01:37:34;97010.84;;;5.59;100.00
68226;BME280;55045;49.410;11.030;2023-04-15T01:40:37;97018.47;;;5.61;100.00
68226;BME280;55045;49.410;11.030;2023-04-15T01:43:43;97011.13;;;5.53;100.00
68226;BME280;55045;49.410;11.030;2023-04-15T01:46:46;97002.38;;;5.57;100.00
68226;BME280;55045;49.410;11.030;2023-04-15T01:49:50;97019.94;;;5.66;100.00
68226;BME280;55045;49.410;11.030;2023-04-15T01:52:53;97008.19;;;5.61;100.00
68226;BME280;55045;49.410;11.030;2023-04-15T01:55:56;97002.22;;;5.60;100.00
68226;BME280;55045;49.410;11.030;2023-04-15T01:59:01;97008.34;;;5.58;100.00
68226;BME280;55045;49.410;11.030;2023-04-15T02:02:04;96993.06;;;5.55;100.00
68226;BME280;55045;49.410;11.030;2023-04-15T02:05:08;96999.88;;;5.56;100.00
68226;BME280;55045;49.410;11.030;2023-04-15T02:08:11;97006.53;;;5.60;100.00
68226;BME280;55045;49.410;11.030;2023-04-15T02:11:15;97002.63;;;5.51;100.00
68226;BME280;55045;49.410;11.030;2023-04-15T02:14:19;96994.72;;;5.56;100.00
68226;BME280;55045;49.410;11.030;2023-04-15T02:17:23;97004.03;;;5.58;100.00
68226;BME280;55045;49.410;11.030;2023-04-15T02:20:26;97004.03;;;5.58;100.00
68226;BME280;55045;49.410;11.030;2023-04-15T02:23:32;97007.34;;;5.60;100.00
68226;BME280;55045;49.410;11.030;2023-04-15T02:26:35;97001.88;;;5.68;100.00
68226;BME280;55045;49.410;11.030;2023-04-15T02:29:40;96925.66;;;5.10;100.00
68226;BME280;55045;49.410;11.030;2023-04-15T02:32:43;97006.59;;;5.58;100.00
68226;BME280;55045;49.410;11.030;2023-04-15T02:35:46;97004.72;;;5.62;100.00
68226;BME280;55045;49.410;11.030;2023-04-15T02:38:49;97007.34;;;5.60;100.00
68226;BME280;55045;49.410;11.030;2023-04-15T02:41:53;97006.53;;;5.60;100.00
68226;BME280;55045;49.410;11.030;2023-04-15T02:44:58;96997.97;;;5.59;100.00
68226;BME280;55045;49.410;11.030;2023-04-15T02:48:06;97014.16;;;5.61;100.00
68226;BME280;55045;49.410;11.030;2023-04-15T02:51:14;96988.34;;;5.45;100.00
68226;BME280;55045;49.410;11.030;2023-04-15T02:54:18;97011.00;;;5.56;100.00
68226;BME280;55045;49.410;11.030;2023-04-15T02:57:22;97009.25;;;5.57;100.00
68226;BME280;55045;49.410;11.030;2023-04-15T03:00:26;97008.19;;;5.61;100.00
68226;BME280;55045;49.410;11.030;2023-04-15T03:03:29;96997.38;;;5.54;100.00
68226;BME280;55045;49.410;11.030;2023-04-15T03:06:33;96999.44;;;5.65;100.00
68226;BME280;55045;49.410;11.030;2023-04-15T03:09:36;97003.19;;;5.58;100.00
68226;BME280;55045;49.410;11.030;2023-04-15T03:12:41;97010.72;;;5.62;100.00
68226;BME280;55045;49.410;11.030;2023-04-15T03:15:51;96998.63;;;5.64;100.00
68226;BME280;55045;49.410;11.030;2023-04-15T03:18:56;97001.25;;;5.63;100.00
68226;BME280;55045;49.410;11.030;2023-04-15T03:22:00;97006.41;;;5.63;100.00
68226;BME280;55045;49.410;11.030;2023-04-15T03:25:04;97015.91;;;5.61;100.00
68226;BME280;55045;49.410;11.030;2023-04-15T03:28:08;96997.44;;;5.53;100.00
68226;BME280;55045;49.410;11.030;2023-04-15T03:34:55;97009.59;;;5.49;100.00
68226;BME280;55045;49.410;11.030;2023-04-15T03:37:59;96998.63;;;5.45;100.00
68226;BME280;55045;49.410;11.030;2023-04-15T03:41:02;96998.63;;;5.45;100.00
68226;BME280;55045;49.410;11.030;2023-04-15T03:44:05;96995.91;;;5.48;100.00
68226;BME280;55045;49.410;11.030;2023-04-15T03:47:09;96994.22;;;5.47;100.00
68226;BME280;55045;49.410;11.030;2023-04-15T03:50:13;97001.13;;;5.47;100.00
68226;BME280;55045;49.410;11.030;2023-04-15T03:53:17;96991.81;;;5.44;100.00
68226;BME280;55045;49.410;11.030;2023-04-15T03:56:20;96992.34;;;5.51;100.00
68226;BME280;55045;49.410;11.030;2023-04-15T03:59:23;97002.09;;;5.44;100.00
68226;BME280;55045;49.410;11.030;2023-04-15T04:02:27;96999.44;;;5.46;100.00
68226;BME280;55045;49.410;11.030;2023-04-15T04:05:31;96995.13;;;5.46;100.00
68226;BME280;55045;49.410;11.030;2023-04-15T04:08:37;97013.56;;;5.56;100.00
68226;BME280;55045;49.410;11.030;2023-04-15T04:11:41;97014.81;;;5.47;100.00
68226;BME280;55045;49.410;11.030;2023-04-15T04:14:44;97008.59;;;5.52;100.00
68226;BME280;55045;49.410;11.030;2023-04-15T04:17:47;97011.41;;;5.47;100.00
68226;BME280;55045;49.410;11.030;2023-04-15T04:20:52;97008.75;;;5.48;100.00
68226;BME280;55045;49.410;11.030;2023-04-15T04:23:55;97013.97;;;5.47;100.00
68226;BME280;55045;49.410;11.030;2023-04-15T04:26:59;97006.94;;;5.50;100.00
68226;BME280;55045;49.410;11.030;2023-04-15T04:30:03;97008.91;;;5.45;100.00
68226;BME280;55045;49.410;11.030;2023-04-15T04:33:07;97007.84;;;5.49;100.00
68226;BME280;55045;49.410;11.030;2023-04-15T04:36:11;97020.72;;;5.49;100.00
68226;BME280;55045;49.410;11.030;2023-04-15T04:39:14;97011.97;;;5.54;100.00
68226;BME280;55045;49.410;11.030;2023-04-15T04:42:18;97015.56;;;5.49;100.00
68226;BME280;55045;49.410;11.030;2023-04-15T04:45:21;97014.53;;;5.54;100.00
68226;BME280;55045;49.410;11.030;2023-04-15T04:48:24;97024.69;;;5.57;100.00
68226;BME280;55045;49.410;11.030;2023-04-15T04:51:29;97020.16;;;5.62;100.00
68226;BME280;55045;49.410;11.030;2023-04-15T04:54:33;97020.16;;;5.62;100.00
68226;BME280;55045;49.410;11.030;2023-04-15T04:57:36;97026.06;;;5.64;100.00
68226;BME280;55045;49.410;11.030;2023-04-15T05:00:40;97021.69;;;5.66;100.00
68226;BME280;55045;49.410;11.030;2023-04-15T05:03:43;97019.78;;;5.69;100.00
68226;BME280;55045;49.410;11.030;2023-04-15T05:06:48;97024.81;;;5.72;100.00
68226;BME280;55045;49.410;11.030;2023-04-15T05:09:51;96939.81;;;5.19;100.00
68226;BME280;55045;49.410;11.030;2023-04-15T05:12:55;97010.22;;;5.73;100.00
68226;BME280;55045;49.410;11.030;2023-04-15T05:15:58;97016.81;;;5.78;100.00
68226;BME280;55045;49.410;11.030;2023-04-15T05:19:01;97005.06;;;5.73;100.00
68226;BME280;55045;49.410;11.030;2023-04-15T05:22:06;97013.94;;;5.85;100.00
68226;BME280;55045;49.410;11.030;2023-04-15T05:25:09;97020.63;;;5.89;100.00
68226;BME280;55045;49.410;11.030;2023-04-15T05:28:13;97018.88;;;5.89;100.00
68226;BME280;55045;49.410;11.030;2023-04-15T05:31:16;97027.19;;;5.96;100.00
68226;BME280;55045;49.410;11.030;2023-04-15T05:34:19;97020.13;;;5.99;100.00
68226;BME280;55045;49.410;11.030;2023-04-15T05:37:24;97022.28;;;6.09;100.00
68226;BME280;55045;49.410;11.030;2023-04-15T05:40:31;97014.84;;;6.02;100.00
68226;BME280;55045;49.410;11.030;2023-04-15T05:43:35;97022.91;;;6.14;100.00
68226;BME280;55045;49.410;11.030;2023-04-15T05:46:38;97026.00;;;6.20;100.00
68226;BME280;55045;49.410;11.030;2023-04-15T05:49:41;97028.50;;;6.22;100.00
68226;BME280;55045;49.410;11.030;2023-04-15T05:52:46;97030.50;;;6.34;100.00
68226;BME280;55045;49.410;11.030;2023-04-15T05:55:49;97037.16;;;6.38;100.00
68226;BME280;55045;49.410;11.030;2023-04-15T05:58:52;97029.88;;;6.29;100.00
68226;BME280;55045;49.410;11.030;2023-04-15T06:01:55;97033.53;;;6.25;100.00
68226;BME280;55045;49.410;11.030;2023-04-15T06:04:59;97046.09;;;6.31;100.00
68226;BME280;55045;49.410;11.030;2023-04-15T06:08:04;97043.97;;;6.39;100.00
68226;BME280;55045;49.410;11.030;2023-04-15T06:11:07;97043.81;;;6.42;100.00
68226;BME280;55045;49.410;11.030;2023-04-15T06:14:10;97036.31;;;6.38;100.00
68226;BME280;55045;49.410;11.030;2023-04-15T06:17:14;97045.66;;;6.40;100.00
68226;BME280;55045;49.410;11.030;2023-04-15T06:20:19;97039.38;;;6.46;100.00
68226;BME280;55045;49.410;11.030;2023-04-15T06:23:24;97044.44;;;6.47;100.00
68226;BME280;55045;49.410;11.030;2023-04-15T06:26:28;97038.38;;;6.48;100.00
68226;BME280;55045;49.410;11.030;2023-04-15T06:29:32;97037.31;;;6.52;100.00
68226;BME280;55045;49.410;11.030;2023-04-15T06:32:35;97039.75;;;6.55;100.00
68226;BME280;55045;49.410;11.030;2023-04-15T06:35:38;97039.06;;;6.69;100.00
68226;BME280;55045;49.410;11.030;2023-04-15T06:38:43;97031.88;;;6.76;100.00
68226;BME280;55045;49.410;11.030;2023-04-15T06:41:46;97033.00;;;6.87;100.00
68226;BME280;55045;49.410;11.030;2023-04-15T06:44:49;97029.88;;;6.98;100.00
68226;BME280;55045;49.410;11.030;2023-04-15T06:47:53;97031.44;;;7.01;100.00
68226;BME280;55045;49.410;11.030;2023-04-15T06:50:56;97023.81;;;6.99;100.00
68226;BME280;55045;49.410;11.030;2023-04-15T06:54:01;97032.13;;;7.04;100.00
68226;BME280;55045;49.410;11.030;2023-04-15T06:57:06;97028.97;;;7.15;100.00
68226;BME280;55045;49.410;11.030;2023-04-15T07:00:11;97028.69;;;7.21;100.00
68226;BME280;55045;49.410;11.030;2023-04-15T07:03:14;97018.44;;;7.19;100.00
68226;BME280;55045;49.410;11.030;2023-04-15T07:06:17;97037.91;;;7.25;100.00
68226;BME280;55045;49.410;11.030;2023-04-15T07:09:22;97032.84;;;7.23;100.00
68226;BME280;55045;49.410;11.030;2023-04-15T07:12:26;96976.91;;;7.08;100.00
68226;BME280;55045;49.410;11.030;2023-04-15T07:15:29;97020.06;;;7.54;100.00
68226;BME280;55045;49.410;11.030;2023-04-15T07:18:33;97032.25;;;7.67;100.00
68226;BME280;55045;49.410;11.030;2023-04-15T07:21:36;97034.47;;;7.73;100.00
68226;BME280;55045;49.410;11.030;2023-04-15T07:24:44;97030.41;;;7.69;100.00
68226;BME280;55045;49.410;11.030;2023-04-15T07:27:48;97027.34;;;7.78;100.00
68226;BME280;55045;49.410;11.030;2023-04-15T07:30:51;97031.16;;;7.87;100.00
68226;BME280;55045;49.410;11.030;2023-04-15T07:33:54;97034.69;;;8.16;100.00
68226;BME280;55045;49.410;11.030;2023-04-15T07:36:58;97035.47;;;8.18;100.00
68226;BME280;55045;49.410;11.030;2023-04-15T07:40:03;97034.22;;;8.09;100.00
68226;BME280;55045;49.410;11.030;2023-04-15T07:43:07;97021.38;;;8.40;100.00
68226;BME280;55045;49.410;11.030;2023-04-15T07:46:11;97020.69;;;8.36;100.00
68226;BME280;55045;49.410;11.030;2023-04-15T07:49:14;97022.69;;;8.31;100.00
68226;BME280;55045;49.410;11.030;2023-04-15T07:52:17;97033.72;;;8.34;100.00
68226;BME280;55045;49.410;11.030;2023-04-15T07:55:22;97034.38;;;8.22;100.00
68226;BME280;55045;49.410;11.030;2023-04-15T07:58:29;97037.56;;;7.96;100.00
68226;BME280;55045;49.410;11.030;2023-04-15T08:01:32;97028.09;;;7.80;100.00
68226;BME280;55045;49.410;11.030;2023-04-15T08:04:36;97030.41;;;8.01;100.00
68226;BME280;55045;49.410;11.030;2023-04-15T08:07:40;97035.91;;;7.95;100.00
68226;BME280;55045;49.410;11.030;2023-04-15T08:10:44;97030.31;;;8.18;100.00
68226;BME280;55045;49.410;11.030;2023-04-15T08:13:47;97034.19;;;8.25;100.00
68226;BME280;55045;49.410;11.030;2023-04-15T08:16:51;97034.78;;;8.15;100.00
68226;BME280;55045;49.410;11.030;2023-04-15T08:19:54;97042.44;;;8.16;100.00
68226;BME280;55045;49.410;11.030;2023-04-15T08:22:58;97028.09;;;8.26;100.00
68226;BME280;55045;49.410;11.030;2023-04-15T08:26:02;97039.34;;;8.25;100.00
68226;BME280;55045;49.410;11.030;2023-04-15T08:29:05;97053.00;;;8.27;100.00
68226;BME280;55045;49.410;11.030;2023-04-15T08:32:09;97038.25;;;7.99;100.00
68226;BME280;55045;49.410;11.030;2023-04-15T08:35:12;97047.22;;;7.92;100.00
68226;BME280;55045;49.410;11.030;2023-04-15T08:38:16;97057.06;;;8.01;100.00
68226;BME280;55045;49.410;11.030;2023-04-15T08:41:22;97050.38;;;7.66;100.00
68226;BME280;55045;49.410;11.030;2023-04-15T08:44:28;97053.91;;;7.80;100.00
68226;BME280;55045;49.410;11.030;2023-04-15T08:47:32;97057.44;;;7.46;100.00
68226;BME280;55045;49.410;11.030;2023-04-15T08:50:36;97050.69;;;7.44;100.00
68226;BME280;55045;49.410;11.030;2023-04-15T08:53:39;97051.28;;;7.49;100.00
68226;BME280;55045;49.410;11.030;2023-04-15T08:56:45;96994.81;;;6.94;100.00
68226;BME280;55045;49.410;11.030;2023-04-15T08:59:48;97069.00;;;7.55;100.00
68226;BME280;55045;49.410;11.030;2023-04-15T09:02:51;97069.34;;;7.49;100.00
68226;BME280;55045;49.410;11.030;2023-04-15T09:05:56;97067.81;;;7.45;100.00
68226;BME280;55045;49.410;11.030;2023-04-15T09:08:59;97067.13;;;7.59;100.00
68226;BME280;55045;49.410;11.030;2023-04-15T09:12:04;97061.56;;;7.66;100.00
68226;BME280;55045;49.410;11.030;2023-04-15T09:15:10;97064.88;;;7.68;100.00
68226;BME280;55045;49.410;11.030;2023-04-15T09:18:26;97077.03;;;7.66;100.00
68226;BME280;55045;49.410;11.030;2023-04-15T09:21:30;97077.56;;;7.56;100.00
68226;BME280;55045;49.410;11.030;2023-04-15T09:24:37;97076.53;;;7.91;100.00
68226;BME280;55045;49.410;11.030;2023-04-15T09:27:47;97072.53;;;7.70;100.00
68226;BME280;55045;49.410;11.030;2023-04-15T09:34:55;97087.28;;;7.99;100.00
68226;BME280;55045;49.410;11.030;2023-04-15T09:38:03;97090.19;;;7.93;100.00
68226;BME280;55045;49.410;11.030;2023-04-15T09:41:15;97090.22;;;8.09;100.00
68226;BME280;55045;49.410;11.030;2023-04-15T09:44:23;97094.34;;;7.96;100.00
68226;BME280;55045;49.410;11.030;2023-04-15T09:47:27;97098.78;;;8.09;100.00
68226;BME280;55045;49.410;11.030;2023-04-15T09:50:39;97103.19;;;7.92;100.00
68226;BME280;55045;49.410;11.030;2023-04-15T09:53:43;97093.03;;;7.89;100.00
68226;BME280;55045;49.410;11.030;2023-04-15T09:56:47;97092.84;;;7.76;100.00
68226;BME280;55045;49.410;11.030;2023-04-15T09:59:50;97104.53;;;8.15;100.00
68226;BME280;55045;49.410;11.030;2023-04-15T10:02:54;97104.53;;;7.99;100.00
68226;BME280;55045;49.410;11.030;2023-04-15T10:05:59;97105.50;;;7.96;100.00
68226;BME280;55045;49.410;11.030;2023-04-15T10:09:07;97110.25;;;7.72;100.00
68226;BME280;55045;49.410;11.030;2023-04-15T10:12:11;97104.72;;;7.47;100.00
68226;BME280;55045;49.410;11.030;2023-04-15T10:15:15;97119.00;;;7.37;100.00
68226;BME280;55045;49.410;11.030;2023-04-15T10:18:19;97122.50;;;7.18;100.00
68226;BME280;55045;49.410;11.030;2023-04-15T10:21:25;97139.66;;;7.19;100.00
68226;BME280;55045;49.410;11.030;2023-04-15T10:24:30;97149.94;;;7.02;100.00
68226;BME280;55045;49.410;11.030;2023-04-15T10:27:34;97150.16;;;7.15;100.00
68226;BME280;55045;49.410;11.030;2023-04-15T10:30:38;97143.50;;;6.93;100.00
68226;BME280;55045;49.410;11.030;2023-04-15T10:33:42;97148.44;;;6.98;100.00
68226;BME280;55045;49.410;11.030;2023-04-15T10:36:47;97149.19;;;7.00;100.00
68226;BME280;55045;49.410;11.030;2023-04-15T10:39:50;97148.44;;;6.98;100.00
68226;BME280;55045;49.410;11.030;2023-04-15T10:42:54;97154.00;;;7.08;100.00
68226;BME280;55045;49.410;11.030;2023-04-15T10:45:58;97147.31;;;7.21;100.00
68226;BME280;55045;49.410;11.030;2023-04-15T10:49:06;97150.78;;;7.37;100.00
68226;BME280;55045;49.410;11.030;2023-04-15T10:52:11;97147.41;;;7.53;100.00
68226;BME280;55045;49.410;11.030;2023-04-15T10:55:19;97147.50;;;7.34;100.00
68226;BME280;55045;49.410;11.030;2023-04-15T10:58:23;97148.13;;;7.21;100.00
68226;BME280;55045;49.410;11.030;2023-04-15T11:01:50;97140.94;;;7.28;100.00
68226;BME280;55045;49.410;11.030;2023-04-15T11:04:56;97139.34;;;7.26;100.00
68226;BME280;55045;49.410;11.030;2023-04-15T11:08:00;97142.91;;;7.06;100.00
68226;BME280;55045;49.410;11.030;2023-04-15T11:11:04;97159.22;;;7.06;100.00
68226;BME280;55045;49.410;11.030;2023-04-15T11:14:14;97155.56;;;7.28;100.00
68226;BME280;55045;49.410;11.030;2023-04-15T11:17:26;97150.06;;;7.51;100.00
68226;BME280;55045;49.410;11.030;2023-04-15T11:20:31;97147.66;;;7.48;100.00
68226;BME280;55045;49.410;11.030;2023-04-15T11:23:40;97156.88;;;7.69;100.00
68226;BME280;55045;49.410;11.030;2023-04-15T11:26:45;97152.94;;;7.45;100.00
68226;BME280;55045;49.410;11.030;2023-04-15T11:29:48;97151.50;;;7.90;100.00
68226;BME280;55045;49.410;11.030;2023-04-15T11:32:52;97155.97;;;7.86;100.00
68226;BME280;55045;49.410;11.030;2023-04-15T11:35:56;97149.22;;;7.68;100.00
68226;BME280;55045;49.410;11.030;2023-04-15T11:39:01;97158.44;;;7.56;100.00
68226;BME280;55045;49.410;11.030;2023-04-15T11:42:15;97158.72;;;7.50;100.00
68226;BME280;55045;49.410;11.030;2023-04-15T11:45:19;97159.84;;;7.44;100.00
68226;BME280;55045;49.410;11.030;2023-04-15T11:48:23;97168.59;;;7.42;100.00
68226;BME280;55045;49.410;11.030;2023-04-15T11:51:31;97159.94;;;7.43;100.00
68226;BME280;55045;49.410;11.030;2023-04-15T11:54:36;97167.22;;;7.52;100.00
68226;BME280;55045;49.410;11.030;2023-04-15T11:57:38;97167.31;;;7.50;100.00
68226;BME280;55045;49.410;11.030;2023-04-15T12:00:45;97164.88;;;7.47;100.00
68226;BME280;55045;49.410;11.030;2023-04-15T12:03:49;97171.75;;;7.64;100.00
68226;BME280;55045;49.410;11.030;2023-04-15T12:06:53;97169.59;;;7.72;100.00
68226;BME280;55045;49.410;11.030;2023-04-15T12:09:57;97176.53;;;7.72;100.00
68226;BME280;55045;49.410;11.030;2023-04-15T12:13:05;97180.88;;;7.54;100.00
68226;BME280;55045;49.410;11.030;2023-04-15T12:16:08;97175.03;;;7.68;100.00
68226;BME280;55045;49.410;11.030;2023-04-15T12:19:13;97179.16;;;7.88;100.00
68226;BME280;55045;49.410;11.030;2023-04-15T12:22:17;97189.53;;;7.53;100.00
68226;BME280;55045;49.410;11.030;2023-04-15T12:25:33;97164.97;;;7.46;100.00
68226;BME280;55045;49.410;11.030;2023-04-15T12:28:39;97182.59;;;7.71;100.00
68226;BME280;55045;49.410;11.030;2023-04-15T12:31:47;97194.56;;;7.56;100.00
68226;BME280;55045;49.410;11.030;2023-04-15T12:34:52;97173.38;;;7.49;100.00
68226;BME280;55045;49.410;11.030;2023-04-15T12:37:56;97200.03;;;7.66;100.00
68226;BME280;55045;49.410;11.030;2023-04-15T12:41:00;97203.53;;;7.65;100.00
68226;BME280;55045;49.410;11.030;2023-04-15T12:44:03;97213.72;;;7.68;100.00
68226;BME280;55045;49.410;11.030;2023-04-15T12:47:08;97212.81;;;7.69;100.00
68226;BME280;55045;49.410;11.030;2023-04-15T12:50:12;97211.81;;;7.71;100.00
68226;BME280;55045;49.410;11.030;2023-04-15T12:53:15;97212.44;;;7.76;100.00
68226;BME280;55045;49.410;11.030;2023-04-15T12:56:19;97216.88;;;7.90;100.00
68226;BME280;55045;49.410;11.030;2023-04-15T12:59:23;97219.13;;;7.96;100.00
68226;BME280;55045;49.410;11.030;2023-04-15T13:02:26;97213.41;;;8.07;100.00
68226;BME280;55045;49.410;11.030;2023-04-15T13:05:30;97201.19;;;8.11;100.00
68226;BME280;55045;49.410;11.030;2023-04-15T13:08:33;97201.00;;;8.14;100.00
68226;BME280;55045;49.410;11.030;2023-04-15T13:11:43;97218.84;;;8.18;100.00
68226;BME280;55045;49.410;11.030;2023-04-15T13:14:46;97220.16;;;8.09;100.00
68226;BME280;55045;49.410;11.030;2023-04-15T13:17:49;97224.91;;;8.01;100.00
68226;BME280;55045;49.410;11.030;2023-04-15T13:20:53;97221.31;;;8.04;100.00
68226;BME280;55045;49.410;11.030;2023-04-15T13:23:58;97235.16;;;7.86;100.00
68226;BME280;55045;49.410;11.030;2023-04-15T13:27:02;97234.41;;;7.84;100.00
68226;BME280;55045;49.410;11.030;2023-04-15T13:30:07;97243.16;;;7.81;100.00
68226;BME280;55045;49.410;11.030;2023-04-15T13:33:10;97244.91;;;7.80;100.00
68226;BME280;55045;49.410;11.030;2023-04-15T13:36:13;97243.81;;;7.85;100.00
68226;BME280;55045;49.410;11.030;2023-04-15T13:39:17;97248.84;;;7.88;100.00
68226;BME280;55045;49.410;11.030;2023-04-15T13:42:21;97244.28;;;7.93;100.00
68226;BME280;55045;49.410;11.030;2023-04-15T13:45:25;97259.97;;;8.05;100.00
68226;BME280;55045;49.410;11.030;2023-04-15T13:48:28;97251.28;;;7.91;100.00
68226;BME280;55045;49.410;11.030;2023-04-15T13:51:32;97257.47;;;8.04;100.00
68226;BME280;55045;49.410;11.030;2023-04-15T13:54:37;97250.47;;;8.06;100.00
68226;BME280;55045;49.410;11.030;2023-04-15T13:57:41;97265.03;;;8.07;100.00
68226;BME280;55045;49.410;11.030;2023-04-15T14:00:45;97266.28;;;8.00;100.00
68226;BME280;55045;49.410;11.030;2023-04-15T14:03:48;97258.47;;;8.01;100.00
68226;BME280;55045;49.410;11.030;2023-04-15T14:06:51;97270.84;;;7.95;100.00
68226;BME280;55045;49.410;11.030;2023-04-15T14:09:54;97265.84;;;7.74;100.00
68226;BME280;55045;49.410;11.030;2023-04-15T14:12:59;97273.88;;;7.86;100.00
68226;BME280;55045;49.410;11.030;2023-04-15T14:16:03;97288.03;;;7.78;100.00
68226;BME280;55045;49.410;11.030;2023-04-15T14:19:06;97304.13;;;7.84;100.00
68226;BME280;55045;49.410;11.030;2023-04-15T14:22:09;97307.16;;;7.74;100.00
68226;BME280;55045;49.410;11.030;2023-04-15T14:25:12;97318.47;;;7.72;100.00
68226;BME280;55045;49.410;11.030;2023-04-15T14:28:32;97323.41;;;7.59;100.00
68226;BME280;55045;49.410;11.030;2023-04-15T14:31:36;97322.47;;;7.43;100.00
68226;BME280;55045;49.410;11.030;2023-04-15T14:34:42;97330.00;;;7.47;100.00
68226;BME280;55045;49.410;11.030;2023-04-15T14:37:45;97334.47;;;7.44;100.00
68226;BME280;55045;49.410;11.030;2023-04-15T14:40:48;97336.53;;;7.55;100.00
68226;BME280;55045;49.410;11.030;2023-04-15T14:43:53;97335.59;;;7.38;100.00
68226;BME280;55045;49.410;11.030;2023-04-15T14:46:56;97343.25;;;7.40;100.00
68226;BME280;55045;49.410;11.030;2023-04-15T14:49:59;97355.03;;;7.45;100.00
68226;BME280;55045;49.410;11.030;2023-04-15T14:53:03;97356.31;;;7.37;100.00
68226;BME280;55045;49.410;11.030;2023-04-15T14:56:06;97357.34;;;7.33;100.00
68226;BME280;55045;49.410;11.030;2023-04-15T14:59:11;97365.94;;;7.33;100.00
68226;BME280;55045;49.410;11.030;2023-04-15T15:02:14;97363.66;;;7.27;100.00
68226;BME280;55045;49.410;11.030;2023-04-15T15:05:38;97375.22;;;7.18;100.00
68226;BME280;55045;49.410;11.030;2023-04-15T15:08:41;97372.00;;;7.32;100.00
68226;BME280;55045;49.410;11.030;2023-04-15T15:11:44;97378.00;;;7.33;100.00
68226;BME280;55045;49.410;11.030;2023-04-15T15:14:49;97382.13;;;7.37;100.00
68226;BME280;55045;49.410;11.030;2023-04-15T15:17:52;97391.53;;;7.38;100.00
68226;BME280;55045;49.410;11.030;2023-04-15T15:20:56;97395.50;;;7.26;100.00
68226;BME280;55045;49.410;11.030;2023-04-15T15:23:59;97395.28;;;7.31;100.00
68226;BME280;55045;49.410;11.030;2023-04-15T15:27:02;97398.38;;;7.20;100.00
68226;BME280;55045;49.410;11.030;2023-04-15T15:30:08;97402.41;;;7.26;100.00
68226;BME280;55045;49.410;11.030;2023-04-15T15:34:55;97406.31;;;7.15;100.00
68226;BME280;55045;49.410;11.030;2023-04-15T15:37:58;97399.19;;;7.20;100.00
68226;BME280;55045;49.410;11.030;2023-04-15T15:41:03;97411.94;;;7.23;100.00
68226;BME280;55045;49.410;11.030;2023-04-15T15:44:06;97414.94;;;7.14;100.00
68226;BME280;55045;49.410;11.030;2023-04-15T15:47:10;97429.53;;;7.15;100.00
68226;BME280;55045;49.410;11.030;2023-04-15T15:50:15;97421.00;;;7.13;100.00
68226;BME280;55045;49.410;11.030;2023-04-15T15:53:18;97430.22;;;7.00;100.00
68226;BME280;55045;49.410;11.030;2023-04-15T15:56:25;97434.31;;;7.04;100.00
68226;BME280;55045;49.410;11.030;2023-04-15T15:59:28;97442.13;;;7.03;100.00
68226;BME280;55045;49.410;11.030;2023-04-15T16:02:31;97443.09;;;7.00;100.00
68226;BME280;55045;49.410;11.030;2023-04-15T16:05:56;97455.16;;;7.00;100.00
68226;BME280;55045;49.410;11.030;2023-04-15T16:08:59;97455.41;;;6.93;100.00
68226;BME280;55045;49.410;11.030;2023-04-15T16:12:03;97465.09;;;6.88;100.00
68226;BME280;55045;49.410;11.030;2023-04-15T16:15:09;97467.47;;;6.93;100.00